Hendersonville, NC

8:40 PM EST on January 26, 2015 (GMT -0500)
Willow Creek - The Shack | Change Station
CLOSE
Current Station
Personal Weather Station
Location: Etowah, NC
Elevation: 2474 ft
Nearby Weather Stations

Elev 2474 ft 35.30 °N, 82.54 °W | Updated 3 minutes ago

Mostly Cloudy
Mostly Cloudy
28.4 °F
Feels Like 20 °F
N
8.3
Wind Variable Wind from SW
Gusts 10.7 mph

Today
High -- | Low -- °F
--% Chance of Precip.
Yesterday
High -- | Low -- °F
Precip. -- in
7:33 AM 5:51 PM
Waxing Crescent, 49% visible
Pressure 29.78 in
Visibility 10.0 miles
Clouds Few 2700 ft
Windchill 20 °F
Dew Point 28 °F
Humidity 99%
Rainfall 0.00 in
Snow Depth Not available.
UV 0 out of 12
Pollen .40 out of 12
Air Quality Not available.
Flu Activity Not available.
SPECI KAVL 270136Z 35015G26KT 10SM FEW027 M02/M05 A2978 RMK AO2 PK WND 34026/0134 T10171050

More Conditions Fewer Conditions

Pressure 29.78 in
Visibility 10.0 miles
Clouds Few 2700 ft
Windchill 20 °F
Dew Point 28 °F
Humidity 99%
Rainfall 0.00 in
Snow Depth Not available.
UV 0 out of 12
Pollen .40 out of 12
Air Quality Not available.
Flu Activity Not available.
SPECI KAVL 270136Z 35015G26KT 10SM FEW027 M02/M05 A2978 RMK AO2 PK WND 34026/0134 T10171050

More Conditions Fewer Conditions

10-Day Weather Forecast

Almanac

Astronomy

Jan. 26, 2015 Rise Set
Actual Time
Civil Twilight
Nautical Twilight
Astronomical Twilight
Moon
Length of Visible Light
Length of Day
Tomorrow will be .
, % of the Moon is Illuminated

Today's Extremes

State Highs State Lows

Community

WunderPhotos

Upload Photos

1,790,451 photos uploaded!

WunderBlogs® & News

Nearby

Air Quality

  Air Quality AQ Index Pollutant
Not available.

Snow Depth

Station Depth Elevation

Earthquake Activity

City Distance Mag. Time & Date
Minimum magnitude displayed is 2.5.

Coastal Water Temperatures

Place Temperature

Nearby Weather Stations